createdAt,value
2022-08-10T00:01:41.762Z,99.90
2022-08-10T00:04:09.890Z,99.90
2022-08-10T00:06:49.351Z,99.90
2022-08-10T00:09:18.816Z,99.90
2022-08-10T00:11:46.859Z,99.90
2022-08-10T00:14:15.001Z,99.90
2022-08-10T00:16:44.858Z,99.90
2022-08-10T00:19:12.965Z,99.90
2022-08-10T00:21:45.345Z,99.90
2022-08-10T00:24:13.471Z,99.90
2022-08-10T00:27:58.743Z,99.90
2022-08-10T00:29:31.204Z,99.90
2022-08-10T00:31:59.729Z,99.90
2022-08-10T00:34:28.458Z,99.90
2022-08-10T00:36:56.661Z,99.90
2022-08-10T00:39:25.162Z,99.90
2022-08-10T00:42:01.967Z,99.90
2022-08-10T00:44:35.927Z,99.90
2022-08-10T00:47:04.067Z,99.90
2022-08-10T00:49:32.462Z,99.90
2022-08-10T00:52:01.086Z,99.90
2022-08-10T00:54:29.638Z,99.90
2022-08-10T00:57:16.538Z,99.90
2022-08-10T00:59:58.488Z,99.90
2022-08-10T01:02:28.764Z,99.90
2022-08-10T01:05:00.752Z,99.90
2022-08-10T01:07:54.403Z,99.90
2022-08-10T01:10:37.501Z,99.90
2022-08-10T01:13:14.217Z,99.90
2022-08-10T01:15:53.969Z,99.90
2022-08-10T01:18:33.689Z,99.90
2022-08-10T01:21:26.357Z,99.90
2022-08-10T01:24:09.909Z,99.90
2022-08-10T01:27:08.176Z,99.90
2022-08-10T01:29:51.062Z,99.90
2022-08-10T01:32:25.701Z,99.90
2022-08-10T01:34:59.732Z,99.90
2022-08-10T01:37:33.190Z,99.90
2022-08-10T01:40:04.370Z,99.90
2022-08-10T01:42:37.270Z,99.90
2022-08-10T01:45:10.169Z,99.90
2022-08-10T01:48:01.156Z,99.90
2022-08-10T01:50:33.101Z,99.90
2022-08-10T01:53:06.004Z,99.90
2022-08-10T01:55:36.071Z,99.90
2022-08-10T01:58:07.357Z,99.90
2022-08-10T02:00:39.694Z,99.90
2022-08-10T02:03:09.804Z,99.90
2022-08-10T02:05:41.044Z,99.90
2022-08-10T02:08:12.100Z,99.90
2022-08-10T02:10:41.399Z,99.90
2022-08-10T02:13:10.839Z,99.90
2022-08-10T02:16:01.154Z,99.90
2022-08-10T02:18:31.962Z,99.90
2022-08-10T02:21:04.329Z,99.90
2022-08-10T02:23:35.574Z,99.90
2022-08-10T02:26:05.882Z,99.90
2022-08-10T02:28:36.880Z,99.90
2022-08-10T02:31:11.463Z,99.90
2022-08-10T02:33:56.842Z,99.90
2022-08-10T02:36:28.886Z,99.90
2022-08-10T02:39:01.315Z,99.90
2022-08-10T02:45:15.498Z,99.90
2022-08-10T02:45:22.070Z,99.90
2022-08-10T02:47:26.793Z,99.90
2022-08-10T02:50:02.949Z,99.90
2022-08-10T02:52:37.197Z,99.90
2022-08-10T02:55:18.340Z,99.90
2022-08-10T02:58:17.484Z,99.90
2022-08-10T03:00:45.403Z,99.90
2022-08-10T03:03:20.233Z,99.90
2022-08-10T03:05:51.505Z,99.90
2022-08-10T03:08:22.782Z,99.90
2022-08-10T03:10:51.995Z,99.90
2022-08-10T03:13:21.621Z,99.90
2022-08-10T03:15:51.409Z,99.90
2022-08-10T03:18:24.578Z,99.90
2022-08-10T03:20:54.311Z,99.90
2022-08-10T03:23:25.711Z,99.90
2022-08-10T03:25:57.051Z,99.90
2022-08-10T03:28:29.054Z,99.90
2022-08-10T03:30:59.170Z,99.90
2022-08-10T03:33:31.292Z,99.90
2022-08-10T03:36:43.463Z,99.90
2022-08-10T03:38:51.543Z,99.90
2022-08-10T03:41:24.689Z,99.90
2022-08-10T03:43:54.262Z,99.90
2022-08-10T03:46:25.956Z,99.90
2022-08-10T03:48:59.202Z,99.90
2022-08-10T03:51:30.146Z,99.90
2022-08-10T03:54:02.856Z,99.90
2022-08-10T03:56:36.124Z,99.90
2022-08-10T03:59:05.024Z,99.90
2022-08-10T04:02:44.274Z,99.90
2022-08-10T04:04:25.068Z,99.90
2022-08-10T04:06:55.385Z,99.90
2022-08-10T04:09:24.442Z,99.90
2022-08-10T04:11:52.486Z,99.90
2022-08-10T04:14:38.064Z,99.90
2022-08-10T04:17:13.761Z,99.90
2022-08-10T04:19:47.822Z,99.90
2022-08-10T04:22:18.758Z,99.90
2022-08-10T04:24:49.430Z,99.90
2022-08-10T04:27:18.361Z,99.90
2022-08-10T04:29:47.521Z,99.90
2022-08-10T04:32:18.224Z,99.90
2022-08-10T04:34:48.645Z,99.90
2022-08-10T04:37:19.246Z,99.90
2022-08-10T04:39:47.470Z,99.90
2022-08-10T04:42:15.783Z,99.90
2022-08-10T04:44:44.316Z,99.90
2022-08-10T04:47:12.363Z,99.90
2022-08-10T04:49:56.413Z,99.90
2022-08-10T04:52:26.417Z,99.90
2022-08-10T04:54:54.545Z,99.90
2022-08-10T04:57:22.617Z,99.90
2022-08-10T04:59:50.970Z,99.90
2022-08-10T05:02:28.631Z,99.90
2022-08-10T05:05:00.182Z,99.90
2022-08-10T05:07:29.616Z,99.90
2022-08-10T05:10:02.949Z,99.90
2022-08-10T05:12:37.176Z,99.90
2022-08-10T05:15:08.407Z,99.90
2022-08-10T05:17:37.249Z,99.90
2022-08-10T05:20:07.641Z,99.90
2022-08-10T05:22:40.638Z,99.90
2022-08-10T05:25:11.527Z,99.90
2022-08-10T05:27:39.894Z,99.90
2022-08-10T05:30:09.470Z,99.90
2022-08-10T05:32:56.506Z,99.90
2022-08-10T05:35:26.642Z,99.90
2022-08-10T05:38:08.860Z,99.90
2022-08-10T05:40:47.483Z,99.90
2022-08-10T05:43:18.651Z,99.90
2022-08-10T05:46:17.101Z,99.90
2022-08-10T05:48:56.966Z,99.90
2022-08-10T05:51:24.423Z,99.90
2022-08-10T05:54:01.106Z,99.90
2022-08-10T05:56:56.380Z,99.90
2022-08-10T06:00:31.106Z,99.90
2022-08-10T06:02:41.306Z,99.90
2022-08-10T06:05:09.712Z,99.90
2022-08-10T06:07:45.926Z,99.90
2022-08-10T06:10:31.600Z,99.90
2022-08-10T06:13:19.469Z,99.90
2022-08-10T06:16:01.666Z,99.90
2022-08-10T06:18:30.813Z,99.90
2022-08-10T06:20:59.082Z,99.90
2022-08-10T06:23:29.348Z,99.90
2022-08-10T06:26:09.709Z,99.90
2022-08-10T06:29:02.140Z,99.90
2022-08-10T06:31:48.521Z,99.90
2022-08-10T06:34:21.611Z,99.90
2022-08-10T06:36:50.227Z,99.90
2022-08-10T06:39:35.197Z,99.90
2022-08-10T06:42:16.675Z,99.90
2022-08-10T06:44:55.417Z,99.90
2022-08-10T06:47:29.853Z,99.90
2022-08-10T06:50:08.531Z,99.90
2022-08-10T06:52:38.062Z,99.90
2022-08-10T06:55:09.186Z,99.90
2022-08-10T06:57:42.426Z,99.90
2022-08-10T07:00:19.710Z,99.90
2022-08-10T07:02:53.732Z,99.90
2022-08-10T07:05:24.189Z,99.90
2022-08-10T07:07:55.383Z,99.90
2022-08-10T07:10:45.417Z,99.90
2022-08-10T07:14:15.458Z,99.90
2022-08-10T07:16:09.347Z,99.90
2022-08-10T07:18:38.408Z,99.90
2022-08-10T07:21:08.247Z,99.90
2022-08-10T07:23:57.782Z,99.90
2022-08-10T07:26:25.994Z,99.90
2022-08-10T07:28:56.295Z,99.90
2022-08-10T07:31:54.419Z,99.90
2022-08-10T07:34:28.681Z,99.90
2022-08-10T07:37:01.834Z,99.90
2022-08-10T07:39:58.276Z,99.90
2022-08-10T07:42:22.742Z,99.90
2022-08-10T07:44:52.568Z,99.90
2022-08-10T07:47:52.357Z,99.90
2022-08-10T07:50:15.848Z,99.90
2022-08-10T07:52:44.774Z,99.90
2022-08-10T07:55:16.545Z,99.90
2022-08-10T07:57:47.493Z,99.90
2022-08-10T08:00:18.281Z,99.90
2022-08-10T08:02:50.640Z,99.90
2022-08-10T08:05:38.578Z,99.90
2022-08-10T08:08:11.758Z,99.90
2022-08-10T08:10:40.125Z,99.90
2022-08-10T08:13:09.165Z,99.90
2022-08-10T08:16:21.231Z,99.90
2022-08-10T08:18:29.990Z,99.90
2022-08-10T08:20:58.646Z,99.90
2022-08-10T08:24:04.355Z,99.90
2022-08-10T08:26:20.646Z,99.90
2022-08-10T08:28:50.256Z,99.90
2022-08-10T08:31:20.901Z,99.90
2022-08-10T08:33:50.401Z,99.90
2022-08-10T08:36:20.758Z,99.90
2022-08-10T08:38:49.622Z,99.90
2022-08-10T08:41:51.077Z,99.90
2022-08-10T08:44:34.248Z,99.90
2022-08-10T08:48:03.119Z,99.90
2022-08-10T08:50:33.818Z,99.90
2022-08-10T08:53:22.215Z,99.90
2022-08-10T08:56:05.370Z,99.90
2022-08-10T08:58:49.445Z,99.90
2022-08-10T09:01:40.174Z,99.90
2022-08-10T09:04:25.038Z,99.90
2022-08-10T09:08:01.263Z,99.90
2022-08-10T09:10:26.140Z,99.90
2022-08-10T09:13:05.311Z,99.90
2022-08-10T09:15:41.610Z,99.90
2022-08-10T09:18:20.307Z,99.90
2022-08-10T09:20:54.810Z,99.90
2022-08-10T09:24:05.324Z,99.90
2022-08-10T09:26:21.511Z,99.90
2022-08-10T09:29:12.798Z,99.90
2022-08-10T09:33:06.042Z,99.90
2022-08-10T09:36:22.289Z,99.90
2022-08-10T09:38:01.881Z,99.90
2022-08-10T09:40:59.008Z,99.90
2022-08-10T09:43:37.224Z,99.90
2022-08-10T09:46:15.117Z,99.90
2022-08-10T09:48:51.366Z,99.90
2022-08-10T09:51:47.145Z,99.90
2022-08-10T09:54:52.110Z,99.90
2022-08-10T09:57:54.835Z,98.80
2022-08-10T10:00:21.114Z,99.90
2022-08-10T10:03:04.540Z,98.60
2022-08-10T10:05:51.311Z,98.90
2022-08-10T10:08:28.935Z,98.50
2022-08-10T10:11:10.679Z,98.70
2022-08-10T10:14:03.914Z,99.90
2022-08-10T10:16:44.533Z,99.80
2022-08-10T10:19:25.598Z,99.20
2022-08-10T10:22:05.244Z,98.00
2022-08-10T10:24:42.315Z,97.20
2022-08-10T10:27:27.657Z,97.60
2022-08-10T10:30:04.025Z,97.30
2022-08-10T10:32:45.858Z,97.90
2022-08-10T10:35:25.557Z,97.90
2022-08-10T10:38:01.027Z,97.80
2022-08-10T10:40:36.209Z,96.20
2022-08-10T10:43:12.430Z,94.90
2022-08-10T10:45:52.464Z,95.00
2022-08-10T10:48:27.563Z,95.20
2022-08-10T10:51:10.921Z,96.20
2022-08-10T10:53:48.707Z,94.90
2022-08-10T10:56:27.150Z,94.70
2022-08-10T10:59:53.719Z,95.90
2022-08-10T11:02:06.337Z,94.70
2022-08-10T11:04:43.539Z,93.60
2022-08-10T11:07:17.862Z,93.90
2022-08-10T11:10:04.504Z,94.50
2022-08-10T11:12:51.070Z,92.80
2022-08-10T11:15:28.393Z,93.40
2022-08-10T11:18:02.368Z,93.10
2022-08-10T11:20:38.213Z,93.80
2022-08-10T11:23:20.070Z,93.20
2022-08-10T11:25:56.880Z,92.20
2022-08-10T11:28:37.107Z,91.80
2022-08-10T11:31:14.262Z,91.80
2022-08-10T11:34:11.565Z,91.60
2022-08-10T11:36:43.655Z,91.60
2022-08-10T11:39:19.196Z,92.10
2022-08-10T11:42:09.752Z,91.40
2022-08-10T11:44:50.398Z,91.10
2022-08-10T11:47:23.267Z,91.40
2022-08-10T11:49:56.709Z,91.40
2022-08-10T11:52:35.424Z,91.10
2022-08-10T11:55:11.007Z,91.40
2022-08-10T11:58:00.863Z,91.30
2022-08-10T12:00:32.640Z,91.30
2022-08-10T12:03:06.938Z,91.00
2022-08-10T12:05:51.786Z,90.80
2022-08-10T12:10:07.177Z,91.70
2022-08-10T12:11:24.331Z,92.70
2022-08-10T12:16:52.359Z,92.60
2022-08-10T12:19:28.514Z,93.10
2022-08-10T12:22:05.821Z,93.80
2022-08-10T12:24:39.342Z,94.10
2022-08-10T12:27:13.257Z,93.60
2022-08-10T12:29:47.160Z,93.70
2022-08-10T12:32:25.738Z,94.20
2022-08-10T12:35:02.242Z,93.30
2022-08-10T12:37:34.693Z,93.60
2022-08-10T12:40:35.294Z,93.80
2022-08-10T12:44:03.761Z,92.70
2022-08-10T12:46:10.660Z,92.60
2022-08-10T12:48:49.327Z,93.70
2022-08-10T12:51:22.489Z,92.30
2022-08-10T12:53:56.406Z,92.50
2022-08-10T12:56:28.547Z,91.20
2022-08-10T12:59:01.508Z,91.90
2022-08-10T13:02:09.785Z,92.20
2022-08-10T13:04:29.688Z,92.80
2022-08-10T13:07:01.722Z,92.10
2022-08-10T13:09:30.679Z,92.40
2022-08-10T13:12:38.855Z,92.20
2022-08-10T13:14:56.030Z,92.40
2022-08-10T13:17:38.859Z,91.40
2022-08-10T13:20:17.145Z,91.20
2022-08-10T13:22:55.206Z,92.10
2022-08-10T13:25:30.921Z,93.20
2022-08-10T13:28:36.563Z,93.40
2022-08-10T13:30:57.005Z,93.10
2022-08-10T13:34:03.801Z,91.00
2022-08-10T13:36:21.551Z,91.90
2022-08-10T13:38:55.900Z,91.70
2022-08-10T13:41:28.705Z,92.40
2022-08-10T13:43:59.851Z,92.80
2022-08-10T13:46:29.040Z,92.40
2022-08-10T13:49:00.922Z,92.70
2022-08-10T13:51:54.081Z,93.40
2022-08-10T13:54:22.985Z,93.70
2022-08-10T13:56:52.900Z,92.80
2022-08-10T13:59:22.488Z,92.10
2022-08-10T14:01:53.270Z,92.40
2022-08-10T14:04:21.793Z,93.00
2022-08-10T14:06:54.240Z,93.90
2022-08-10T14:09:30.063Z,93.50
2022-08-10T14:11:59.793Z,94.00
2022-08-10T14:14:30.299Z,92.30
2022-08-10T14:16:59.480Z,93.50
2022-08-10T14:19:30.914Z,93.60
2022-08-10T14:22:01.169Z,94.00
2022-08-10T14:24:32.499Z,93.90
2022-08-10T14:27:06.719Z,94.10
2022-08-10T14:29:42.546Z,93.50
2022-08-10T14:32:12.522Z,93.90
2022-08-10T14:36:16.225Z,94.60
2022-08-10T14:37:38.165Z,92.60
2022-08-10T14:40:14.188Z,93.90
2022-08-10T14:42:48.197Z,94.10
2022-08-10T14:45:23.029Z,93.50
2022-08-10T14:47:59.619Z,93.60
2022-08-10T14:50:33.576Z,93.60
2022-08-10T14:53:09.439Z,94.30
2022-08-10T14:55:58.996Z,94.60
2022-08-10T14:58:31.422Z,93.90
2022-08-10T15:00:59.924Z,94.10
2022-08-10T15:03:58.894Z,94.70
2022-08-10T15:06:30.789Z,94.80
2022-08-10T15:09:18.872Z,94.60
2022-08-10T15:12:15.756Z,95.20
2022-08-10T15:14:43.498Z,94.90
2022-08-10T15:17:17.318Z,95.90
2022-08-10T15:20:03.459Z,95.00
2022-08-10T15:22:50.154Z,95.80
2022-08-10T15:25:24.283Z,95.30
2022-08-10T15:28:05.011Z,94.60
2022-08-10T15:30:40.735Z,95.10
2022-08-10T15:33:59.389Z,95.20
2022-08-10T15:36:37.384Z,95.40
2022-08-10T15:39:12.767Z,95.30
2022-08-10T15:42:00.781Z,95.10
2022-08-10T15:44:43.281Z,94.20
2022-08-10T15:47:15.457Z,94.40
2022-08-10T15:49:52.735Z,94.60
2022-08-10T15:53:01.320Z,94.80
2022-08-10T15:55:41.298Z,94.80
2022-08-10T15:58:08.130Z,94.90
2022-08-10T16:00:44.801Z,95.40
2022-08-10T16:03:17.879Z,95.50
2022-08-10T16:06:01.441Z,96.00
2022-08-10T16:08:56.044Z,95.30
2022-08-10T16:11:37.679Z,95.00
2022-08-10T16:14:17.835Z,94.90
2022-08-10T16:16:54.004Z,95.00
2022-08-10T16:19:25.796Z,95.00
2022-08-10T16:22:02.724Z,95.00
2022-08-10T16:24:51.551Z,95.10
2022-08-10T16:27:23.650Z,95.70
2022-08-10T16:29:58.481Z,96.00
2022-08-10T16:32:30.384Z,96.40
2022-08-10T16:35:00.479Z,96.30
2022-08-10T16:37:58.274Z,96.40
2022-08-10T16:40:25.321Z,96.80
2022-08-10T16:42:55.094Z,96.30
2022-08-10T16:45:30.757Z,96.60
2022-08-10T16:48:01.554Z,96.60
2022-08-10T16:50:33.182Z,96.40
2022-08-10T16:53:03.398Z,96.60
2022-08-10T16:55:48.541Z,96.70
2022-08-10T16:58:21.897Z,96.90
2022-08-10T17:00:51.482Z,97.20
2022-08-10T17:04:07.620Z,97.30
2022-08-10T17:06:22.325Z,97.30
2022-08-10T17:08:53.158Z,97.20
2022-08-10T17:11:24.269Z,97.30
2022-08-10T17:13:57.070Z,97.00
2022-08-10T17:16:26.760Z,97.20
2022-08-10T17:18:57.736Z,97.10
2022-08-10T17:21:31.210Z,96.90
2022-08-10T17:24:03.597Z,97.10
2022-08-10T17:26:36.967Z,97.40
2022-08-10T17:29:53.545Z,98.00
2022-08-10T17:32:06.367Z,98.10
2022-08-10T17:34:39.354Z,98.40
2022-08-10T17:37:16.473Z,98.30
2022-08-10T17:39:49.806Z,98.60
2022-08-10T17:42:24.145Z,99.20
2022-08-10T17:44:54.134Z,99.10
2022-08-10T17:47:27.464Z,99.10
2022-08-10T17:49:58.972Z,99.20
2022-08-10T17:52:31.519Z,99.40
2022-08-10T17:55:04.056Z,99.70
2022-08-10T17:57:37.453Z,99.90
2022-08-10T18:00:08.930Z,99.90
2022-08-10T18:02:40.100Z,99.90
2022-08-10T18:05:11.780Z,99.90
2022-08-10T18:07:46.499Z,99.90
2022-08-10T18:10:17.649Z,99.90
2022-08-10T18:12:47.666Z,99.90
2022-08-10T18:15:20.041Z,99.90
2022-08-10T18:17:51.097Z,99.90
2022-08-10T18:20:28.120Z,99.90
2022-08-10T18:22:58.226Z,99.90
2022-08-10T18:25:30.359Z,99.90
2022-08-10T18:28:04.988Z,99.90
2022-08-10T18:30:37.287Z,99.90
2022-08-10T18:33:11.858Z,99.90
2022-08-10T18:35:42.762Z,99.90
2022-08-10T18:38:12.859Z,99.90
2022-08-10T18:40:45.012Z,99.90
2022-08-10T18:44:09.877Z,99.90
2022-08-10T18:46:09.448Z,99.90
2022-08-10T18:48:41.476Z,99.90
2022-08-10T18:51:12.972Z,99.90
2022-08-10T18:53:48.236Z,99.90
2022-08-10T18:56:34.039Z,99.90
2022-08-10T18:59:14.795Z,99.90
2022-08-10T19:02:06.297Z,99.90
2022-08-10T19:04:53.898Z,99.90
2022-08-10T19:07:39.396Z,99.90
2022-08-10T19:10:15.360Z,99.90
2022-08-10T19:12:51.620Z,99.90
2022-08-10T19:15:27.014Z,99.90
2022-08-10T19:18:08.127Z,99.90
2022-08-10T19:20:44.802Z,99.90
2022-08-10T19:23:28.487Z,99.90
2022-08-10T19:26:41.015Z,99.90
2022-08-10T19:29:01.747Z,99.90
2022-08-10T19:31:44.788Z,99.90
2022-08-10T19:34:34.222Z,99.90
2022-08-10T19:37:15.290Z,99.90
2022-08-10T19:39:59.844Z,99.90
2022-08-10T19:42:33.674Z,99.90
2022-08-10T19:45:12.473Z,99.90
2022-08-10T19:48:10.070Z,99.90
2022-08-10T19:50:44.915Z,99.90
2022-08-10T19:53:25.105Z,99.90
2022-08-10T19:56:24.229Z,99.90
2022-08-10T19:59:01.284Z,99.90
2022-08-10T20:01:54.458Z,99.90
2022-08-10T20:04:29.585Z,99.90
2022-08-10T20:07:10.150Z,99.90
2022-08-10T20:09:44.959Z,99.90
2022-08-10T20:12:21.263Z,99.90
2022-08-10T20:14:59.939Z,99.90
2022-08-10T20:17:51.120Z,99.90
2022-08-10T20:20:30.482Z,99.90
2022-08-10T20:23:09.392Z,99.90
2022-08-10T20:25:37.608Z,99.90
2022-08-10T20:28:19.614Z,99.90
2022-08-10T20:30:52.908Z,99.90
2022-08-10T20:33:28.662Z,99.90
2022-08-10T20:36:04.257Z,99.90
2022-08-10T20:38:39.270Z,99.90
2022-08-10T20:41:22.801Z,99.90
2022-08-10T20:44:04.631Z,99.90
2022-08-10T20:46:38.702Z,99.90
2022-08-10T20:49:16.821Z,99.90
2022-08-10T20:51:57.360Z,99.90
2022-08-10T20:54:34.477Z,99.90
2022-08-10T20:57:54.165Z,99.90
2022-08-10T21:00:17.185Z,99.90
2022-08-10T21:03:15.998Z,99.90
2022-08-10T21:05:59.989Z,99.90
2022-08-10T21:08:43.933Z,99.90
2022-08-10T21:11:19.425Z,99.90
2022-08-10T21:14:17.830Z,99.90
2022-08-10T21:17:06.325Z,99.90
2022-08-10T21:20:12.219Z,99.90
2022-08-10T21:22:43.171Z,99.90
2022-08-10T21:25:17.032Z,99.90
2022-08-10T21:28:07.529Z,99.90
2022-08-10T21:30:55.183Z,99.90
2022-08-10T21:33:36.397Z,99.90
2022-08-10T21:36:12.596Z,99.90
2022-08-10T21:38:49.093Z,99.90
2022-08-10T21:41:56.998Z,99.90
2022-08-10T21:45:08.183Z,99.90
2022-08-10T21:48:17.346Z,99.90
2022-08-10T21:51:14.742Z,99.90
2022-08-10T21:54:08.706Z,99.90
2022-08-10T21:57:00.701Z,99.90
2022-08-10T21:59:51.168Z,99.90
2022-08-10T22:02:49.774Z,99.90
2022-08-10T22:08:49.639Z,99.90
2022-08-10T22:11:38.127Z,99.90
2022-08-10T22:14:27.199Z,99.90
2022-08-10T22:17:59.136Z,99.90
2022-08-10T22:20:33.061Z,99.90
2022-08-10T22:23:41.600Z,99.90
2022-08-10T22:26:41.106Z,99.90
2022-08-10T22:29:42.493Z,99.90
2022-08-10T22:31:28.961Z,99.90
2022-08-10T22:32:38.958Z,99.90
2022-08-10T22:35:57.630Z,99.90
2022-08-10T22:39:00.211Z,99.90
2022-08-10T22:41:55.327Z,99.90
2022-08-10T22:44:43.735Z,99.90
2022-08-10T22:47:32.235Z,99.90
2022-08-10T22:50:03.371Z,99.90
2022-08-10T22:53:02.771Z,99.90
2022-08-10T22:55:52.667Z,99.90
2022-08-10T22:58:42.192Z,99.90
2022-08-10T23:01:35.769Z,99.90
2022-08-10T23:04:11.440Z,99.90
2022-08-10T23:06:41.414Z,99.90
2022-08-10T23:09:13.685Z,99.90
2022-08-10T23:11:45.037Z,99.90
2022-08-10T23:14:23.613Z,99.90
2022-08-10T23:17:12.738Z,99.90
2022-08-10T23:19:45.534Z,99.90
2022-08-10T23:22:16.557Z,99.90
2022-08-10T23:24:48.392Z,99.90
2022-08-10T23:27:37.476Z,99.90
2022-08-10T23:30:17.620Z,99.90
2022-08-10T23:32:49.836Z,99.90
2022-08-10T23:36:13.148Z,99.90
2022-08-10T23:38:09.809Z,99.90
2022-08-10T23:40:38.749Z,99.90
2022-08-10T23:43:08.567Z,99.90
2022-08-10T23:45:52.985Z,99.90
2022-08-10T23:48:24.979Z,99.90
2022-08-10T23:50:59.199Z,99.90
2022-08-10T23:53:31.249Z,99.90
2022-08-10T23:56:02.058Z,99.90
2022-08-10T23:58:40.992Z,99.90
